Time;durP1;ratioP1;P1;durP2;ratioP2;P2;SDS_P1;SDS_P2;PMS_P1;PMS_P2;Temp;Humidity;BMP_temperature;BMP_pressure;BME280_temperature;BME280_humidity;BME280_pressure;Samples;Min_cycle;Max_cycle;Signal;HPM_P1;HPM_P2
2022/06/24 00:02:03;;;;;;;6.25;2.20;;;21.70;70.10;;;;;;5074358;28;20047;-48
2022/06/24 00:04:30;;;;;;;3.15;2.28;;;21.70;71.00;;;;;;5074126;28;20072;-50
2022/06/24 00:06:59;;;;;;;3.70;2.27;;;21.70;71.50;;;;;;5073851;28;20506;-47
2022/06/24 00:09:29;;;;;;;4.40;2.30;;;21.70;71.10;;;;;;5073860;28;20558;-50
2022/06/24 00:12:10;;;;;;;2.53;2.17;;;21.60;71.40;;;;;;5073995;28;20119;-47
2022/06/24 00:14:37;;;;;;;2.08;1.98;;;21.60;71.40;;;;;;5074079;28;20115;-48
2022/06/24 00:17:09;;;;;;;3.38;2.30;;;21.60;71.30;;;;;;5073862;28;20041;-48
2022/06/24 00:19:55;;;;;;;2.60;2.40;;;21.60;71.50;;;;;;5073565;28;20503;-47
2022/06/24 00:22:21;;;;;;;3.63;2.20;;;21.50;71.40;;;;;;5073357;28;20090;-48
2022/06/24 00:24:47;;;;;;;3.80;2.30;;;21.50;71.70;;;;;;5073879;28;20105;-48
2022/06/24 00:27:23;;;;;;;3.40;2.38;;;21.50;72.20;;;;;;5073712;28;20445;-48
2022/06/24 00:29:50;;;;;;;2.55;2.30;;;21.40;72.20;;;;;;5073440;28;20107;-48
2022/06/24 00:32:16;;;;;;;3.08;2.40;;;21.40;71.20;;;;;;5073677;28;20036;-49
2022/06/24 00:34:42;;;;;;;2.95;2.40;;;21.40;71.60;;;;;;5073660;28;20051;-47
2022/06/24 00:37:25;;;;;;;3.10;2.30;;;21.40;71.90;;;;;;5073598;28;20040;-47
2022/06/24 00:40:00;;;;;;;3.05;2.60;;;21.30;72.20;;;;;;5073281;28;20498;-48
2022/06/24 00:42:26;;;;;;;3.15;2.47;;;21.30;72.90;;;;;;5073398;28;20052;-48
2022/06/24 00:45:08;;;;;;;5.57;2.72;;;21.20;73.10;;;;;;5073344;28;20056;-48
2022/06/24 00:47:36;;;;;;;3.95;3.05;;;21.20;72.60;;;;;;5073313;28;20086;-48
2022/06/24 00:50:11;;;;;;;3.38;2.55;;;21.20;72.40;;;;;;5073345;28;20053;-48
2022/06/24 00:52:37;;;;;;;2.92;2.38;;;21.20;73.40;;;;;;5073009;28;20049;-49
2022/06/24 00:55:04;;;;;;;6.10;2.72;;;21.20;73.30;;;;;;5073083;28;20558;-49
2022/06/24 00:57:36;;;;;;;3.67;2.58;;;21.10;73.60;;;;;;5073118;28;20479;-48
2022/06/24 01:00:03;;;;;;;4.55;2.65;;;21.00;73.60;;;;;;5072087;28;20048;-48
2022/06/24 01:02:31;;;;;;;2.70;2.50;;;21.00;74.30;;;;;;5073551;28;20041;-49
2022/06/24 01:05:06;;;;;;;;;;;20.90;74.00;;;;;;5073452;28;20219;-49
2022/06/24 01:07:37;;;;;;;2.78;2.28;;;20.90;74.20;;;;;;5073024;28;19989;-50
2022/06/24 01:10:03;;;;;;;6.28;3.03;;;20.90;74.40;;;;;;5072160;28;20478;-52
2022/06/24 01:12:31;;;;;;;4.35;2.63;;;20.90;74.70;;;;;;5073410;28;20037;-51
2022/06/24 01:14:57;;;;;;;4.50;2.75;;;20.80;74.90;;;;;;5072927;28;20630;-52
2022/06/24 01:17:23;;;;;;;5.75;2.42;;;20.80;74.50;;;;;;5073055;28;20078;-53
2022/06/24 01:19:49;;;;;;;3.13;2.53;;;20.70;75.30;;;;;;5072712;28;20044;-52
2022/06/24 01:22:28;;;;;;;3.92;2.70;;;20.70;75.70;;;;;;5073018;28;20501;-51
2022/06/24 01:24:54;;;;;;;4.22;2.50;;;20.70;75.60;;;;;;5073007;28;20037;-50
2022/06/24 01:27:20;;;;;;;5.18;2.63;;;20.70;76.10;;;;;;5072899;28;20075;-52
2022/06/24 01:29:47;;;;;;;3.58;2.70;;;20.60;77.10;;;;;;5072778;28;20045;-49
2022/06/24 01:32:13;;;;;;;3.40;2.75;;;20.50;76.60;;;;;;5072896;28;20036;-52
2022/06/24 01:34:38;;;;;;;3.22;2.45;;;20.50;77.50;;;;;;5072597;28;20048;-51
2022/06/24 01:37:05;;;;;;;5.13;2.58;;;20.50;78.00;;;;;;5073049;28;20119;-51
2022/06/24 01:39:30;;;;;;;4.22;2.45;;;20.40;78.00;;;;;;5072800;28;20204;-50
2022/06/24 01:41:57;;;;;;;3.83;2.63;;;20.40;78.20;;;;;;5072678;28;20175;-50
2022/06/24 01:44:22;;;;;;;4.70;2.72;;;20.40;78.40;;;;;;5072657;28;20040;-52
2022/06/24 01:46:49;;;;;;;3.63;2.50;;;20.40;78.60;;;;;;5072532;28;20445;-52
2022/06/24 01:49:14;;;;;;;3.03;2.65;;;20.30;79.00;;;;;;5072517;28;20037;-51
2022/06/24 01:51:43;;;;;;;4.57;2.60;;;20.40;79.80;;;;;;5072852;28;20173;-51
2022/06/24 01:54:09;;;;;;;2.97;2.55;;;20.40;80.00;;;;;;5072427;28;20045;-50
2022/06/24 01:56:35;;;;;;;2.97;2.67;;;20.30;81.00;;;;;;5072592;28;20045;-52
2022/06/24 01:59:01;;;;;;;3.47;2.42;;;20.30;80.60;;;;;;5072797;28;20387;-50
2022/06/24 02:01:26;;;;;;;3.75;2.40;;;20.30;80.50;;;;;;5072998;28;20033;-51
2022/06/24 02:03:52;;;;;;;2.85;2.65;;;20.30;80.00;;;;;;5073168;28;20051;-49
2022/06/24 02:06:18;;;;;;;4.97;2.78;;;20.40;80.30;;;;;;5072543;28;20041;-52
2022/06/24 02:08:44;;;;;;;3.90;2.60;;;20.40;82.20;;;;;;5072619;28;20085;-52
2022/06/24 02:13:57;;;;;;;3.63;2.75;;;20.40;81.70;;;;;;5072506;28;20052;-48
2022/06/24 02:16:23;;;;;;;2.78;2.47;;;20.40;81.80;;;;;;5072535;28;20053;-49
2022/06/24 02:18:49;;;;;;;2.53;2.33;;;20.50;82.20;;;;;;5072558;28;20037;-52
2022/06/24 02:21:16;;;;;;;4.53;2.60;;;20.50;81.80;;;;;;5074491;28;20089;-48
2022/06/24 02:23:42;;;;;;;2.80;2.60;;;20.50;81.90;;;;;;5076084;28;20064;-48
2022/06/24 02:26:09;;;;;;;4.30;3.07;;;20.60;81.90;;;;;;5076471;28;20133;-49
2022/06/24 02:28:35;;;;;;;2.83;2.38;;;20.50;81.80;;;;;;5075895;28;20050;-47
2022/06/24 02:31:02;;;;;;;2.58;2.38;;;20.60;82.60;;;;;;5075960;28;20051;-47
2022/06/24 02:33:29;;;;;;;3.63;2.78;;;20.50;82.40;;;;;;5075989;28;20044;-47
2022/06/24 02:35:55;;;;;;;3.78;2.30;;;20.50;83.20;;;;;;5075797;28;20086;-48
2022/06/24 02:38:21;;;;;;;4.35;2.75;;;20.50;83.10;;;;;;5076183;28;20506;-51
2022/06/24 02:40:47;;;;;;;3.75;2.33;;;20.50;82.70;;;;;;5075761;28;20125;-52
2022/06/24 02:43:17;;;;;;;4.47;2.70;;;20.50;83.10;;;;;;5075574;28;20079;-49
2022/06/24 02:45:53;;;;;;;3.92;2.50;;;20.50;82.90;;;;;;5075759;28;20048;-48
2022/06/24 02:48:20;;;;;;;5.43;3.17;;;20.50;83.50;;;;;;5075627;28;20490;-50
2022/06/24 02:50:53;;;;;;;5.18;2.60;;;20.50;83.40;;;;;;5075559;28;20051;-49
2022/06/24 02:53:21;;;;;;;3.67;2.50;;;20.50;83.70;;;;;;5075312;28;20404;-48
2022/06/24 02:55:48;;;;;;;4.07;2.80;;;20.50;85.10;;;;;;5075276;28;20051;-49
2022/06/24 02:58:15;;;;;;;4.53;2.92;;;20.50;84.50;;;;;;5075375;28;20053;-48
2022/06/24 03:00:41;;;;;;;3.13;2.85;;;20.50;84.90;;;;;;5075517;28;20047;-47
2022/06/24 03:03:11;;;;;;;3.70;3.10;;;20.50;85.70;;;;;;5075297;28;20090;-50
2022/06/24 03:05:37;;;;;;;4.05;3.03;;;20.40;86.50;;;;;;5075463;28;20041;-51
2022/06/24 03:08:04;;;;;;;6.13;3.33;;;20.40;86.90;;;;;;5075246;28;20505;-51
2022/06/24 03:10:29;;;;;;;3.13;2.83;;;20.40;86.30;;;;;;5075076;28;20049;-48
2022/06/24 03:12:55;;;;;;;3.67;2.92;;;20.50;85.60;;;;;;5075324;28;20058;-48
2022/06/24 03:15:21;;;;;;;6.25;2.78;;;20.50;86.30;;;;;;5075212;28;20045;-48
2022/06/24 03:17:47;;;;;;;5.95;3.00;;;20.50;86.40;;;;;;5075143;28;20044;-48
2022/06/24 03:20:12;;;;;;;3.75;2.92;;;20.40;86.80;;;;;;5075139;28;20495;-48
2022/06/24 03:22:38;;;;;;;5.13;3.45;;;20.50;86.70;;;;;;5074856;28;20048;-48
2022/06/24 03:25:05;;;;;;;5.80;3.35;;;20.40;87.00;;;;;;5074735;28;20040;-50
2022/06/24 03:27:31;;;;;;;5.87;2.90;;;20.50;87.10;;;;;;5074903;28;20049;-48
2022/06/24 03:29:56;;;;;;;5.95;3.00;;;20.50;87.80;;;;;;5074927;28;20089;-47
2022/06/24 03:32:22;;;;;;;5.00;3.20;;;20.50;87.60;;;;;;5073953;28;20490;-48
2022/06/24 03:34:47;;;;;;;3.55;2.78;;;20.50;88.70;;;;;;5074726;28;20041;-48
2022/06/24 03:37:13;;;;;;;5.22;3.00;;;20.50;90.00;;;;;;5074724;28;20040;-47
2022/06/24 03:39:39;;;;;;;4.15;3.20;;;20.40;90.70;;;;;;5074446;28;20047;-48
2022/06/24 03:42:05;;;;;;;5.53;3.22;;;20.40;91.10;;;;;;5074763;28;20045;-48
2022/06/24 03:44:32;;;;;;;5.35;2.92;;;20.40;91.00;;;;;;5074849;28;20072;-50
2022/06/24 03:46:58;;;;;;;3.67;3.37;;;20.40;91.10;;;;;;5074606;28;20037;-52
2022/06/24 03:49:23;;;;;;;7.40;2.95;;;20.40;90.90;;;;;;5074471;28;20271;-49
2022/06/24 03:51:49;;;;;;;4.53;3.17;;;20.50;91.10;;;;;;5074346;28;20059;-48
2022/06/24 03:54:15;;;;;;;4.43;3.25;;;20.50;91.80;;;;;;5073977;28;20109;-48
2022/06/24 03:56:41;;;;;;;3.92;3.53;;;20.60;91.90;;;;;;5074357;28;20037;-49
2022/06/24 03:59:07;;;;;;;9.07;3.53;;;20.70;92.40;;;;;;5074340;28;20040;-50
2022/06/24 04:01:32;;;;;;;7.57;3.97;;;20.80;91.90;;;;;;5074263;28;20040;-52
2022/06/24 04:03:58;;;;;;;4.63;3.70;;;20.90;92.70;;;;;;5074610;28;20071;-52
2022/06/24 04:06:24;;;;;;;5.00;3.70;;;21.00;93.00;;;;;;5074080;28;20040;-53
2022/06/24 04:08:51;;;;;;;4.07;3.67;;;21.10;93.10;;;;;;5073901;28;20041;-51
2022/06/24 04:11:17;;;;;;;4.25;3.83;;;21.10;93.50;;;;;;5072656;28;20040;-48
2022/06/24 04:13:43;;;;;;;4.80;4.40;;;21.20;93.90;;;;;;5074034;28;20044;-50
2022/06/24 04:16:09;;;;;;;5.93;4.55;;;21.30;94.50;;;;;;5073901;28;20399;-48
2022/06/24 04:18:35;;;;;;;8.00;5.75;;;21.30;95.40;;;;;;5074005;28;20047;-49
2022/06/24 04:21:01;;;;;;;8.10;6.70;;;21.30;96.40;;;;;;5073895;28;20498;-49
2022/06/24 04:23:27;;;;;;;9.25;6.97;;;21.40;98.00;;;;;;5073605;28;20147;-51
2022/06/24 04:25:53;;;;;;;10.82;8.18;;;21.40;99.50;;;;;;5073783;28;20520;-51
2022/06/24 04:28:19;;;;;;;12.75;9.82;;;21.40;99.90;;;;;;5073848;28;20090;-48
2022/06/24 04:30:45;;;;;;;10.98;9.85;;;21.50;99.90;;;;;;5073594;28;20048;-51
2022/06/24 04:33:11;;;;;;;12.50;11.25;;;21.50;99.90;;;;;;5073515;28;20415;-51
2022/06/24 04:35:36;;;;;;;14.55;11.25;;;21.50;99.90;;;;;;5073480;28;20036;-52
2022/06/24 04:38:02;;;;;;;12.70;11.43;;;21.50;99.90;;;;;;5072476;28;20045;-52
2022/06/24 04:40:28;;;;;;;13.13;11.27;;;21.50;99.90;;;;;;5073304;28;20045;-48
2022/06/24 04:42:54;;;;;;;15.23;11.00;;;21.50;99.90;;;;;;5071999;28;20120;-53
2022/06/24 04:45:20;;;;;;;11.32;10.07;;;21.70;99.90;;;;;;5073687;28;20427;-50
2022/06/24 04:47:45;;;;;;;10.82;8.55;;;21.80;99.90;;;;;;5073800;28;20189;-48
2022/06/24 04:50:11;;;;;;;10.85;9.75;;;22.00;99.90;;;;;;5073210;28;20040;-49
2022/06/24 04:52:38;;;;;;;10.70;8.93;;;22.20;99.90;;;;;;5072948;28;20059;-48
2022/06/24 04:55:06;;;;;;;9.65;8.68;;;22.30;99.90;;;;;;5073097;28;20071;-49
2022/06/24 04:57:31;;;;;;;;;;;22.10;99.90;;;;;;5073765;28;20635;-48
2022/06/24 04:59:57;;;;;;;10.50;8.25;;;22.10;99.90;;;;;;5073487;28;20065;-49
2022/06/24 05:02:23;;;;;;;9.63;7.95;;;22.00;99.90;;;;;;5073189;28;20051;-49
2022/06/24 05:04:48;;;;;;;7.70;6.72;;;21.90;99.90;;;;;;5073043;28;20032;-48
2022/06/24 05:07:14;;;;;;;7.45;6.35;;;21.80;99.90;;;;;;5073184;28;20040;-48
2022/06/24 05:09:40;;;;;;;8.40;5.88;;;21.70;99.90;;;;;;5072910;28;20484;-49
2022/06/24 05:12:06;;;;;;;6.45;5.40;;;21.60;99.90;;;;;;5073149;28;20079;-48
2022/06/24 05:14:33;;;;;;;5.53;4.53;;;21.50;99.90;;;;;;5073066;28;20040;-49
2022/06/24 05:16:59;;;;;;;6.03;5.20;;;21.40;99.90;;;;;;5072954;28;20040;-50
2022/06/24 05:19:25;;;;;;;5.65;4.28;;;21.30;99.90;;;;;;5072826;28;20123;-51
2022/06/24 05:21:51;;;;;;;5.85;4.45;;;21.20;99.90;;;;;;5073129;28;20051;-53
2022/06/24 05:24:17;;;;;;;5.93;4.70;;;21.20;99.90;;;;;;5072783;28;20402;-51
2022/06/24 05:26:44;;;;;;;6.03;4.55;;;21.10;99.90;;;;;;5072974;28;20086;-48
2022/06/24 05:29:10;;;;;;;5.55;4.47;;;21.00;99.90;;;;;;5072943;28;20127;-48
2022/06/24 05:31:36;;;;;;;5.43;4.30;;;21.00;99.90;;;;;;5072892;28;20044;-48
2022/06/24 05:34:02;;;;;;;5.78;4.15;;;21.00;99.90;;;;;;5072749;28;20036;-49
2022/06/24 05:36:28;;;;;;;7.95;4.20;;;21.00;99.90;;;;;;5071343;28;20041;-49
2022/06/24 05:38:53;;;;;;;6.03;4.50;;;21.00;99.90;;;;;;5072792;28;20037;-53
2022/06/24 05:41:19;;;;;;;4.50;4.10;;;21.00;99.90;;;;;;5072828;28;20452;-52
2022/06/24 05:43:46;;;;;;;6.28;4.72;;;21.10;99.90;;;;;;5072666;28;20037;-50
2022/06/24 05:46:12;;;;;;;5.73;4.40;;;21.10;99.90;;;;;;5071584;28;20094;-48
2022/06/24 05:48:38;;;;;;;5.75;4.53;;;21.00;99.90;;;;;;5072583;28;20044;-49
2022/06/24 05:51:11;;;;;;;5.20;4.65;;;21.00;99.90;;;;;;5072753;28;20047;-48
2022/06/24 05:56:23;;;;;;;7.97;5.63;;;21.10;99.90;;;;;;5074838;28;20044;-51
2022/06/24 05:58:48;;;;;;;5.25;4.85;;;21.20;99.90;;;;;;5076568;28;20044;-50
2022/06/24 06:01:14;;;;;;;13.23;5.57;;;21.20;99.90;;;;;;5076347;28;20037;-52
2022/06/24 06:03:40;;;;;;;6.10;5.50;;;21.20;99.90;;;;;;5076534;28;20063;-53
2022/06/24 06:06:07;;;;;;;5.78;5.20;;;21.30;99.90;;;;;;5076465;28;20167;-52
2022/06/24 06:08:34;;;;;;;6.35;5.43;;;21.30;99.90;;;;;;5076341;28;20045;-50
2022/06/24 06:11:00;;;;;;;5.82;4.70;;;21.40;99.90;;;;;;5076459;28;20048;-50
2022/06/24 06:13:26;;;;;;;7.88;5.50;;;21.40;99.90;;;;;;5075047;28;20512;-48
2022/06/24 06:15:51;;;;;;;8.05;4.75;;;21.50;99.90;;;;;;5075916;28;20044;-48
2022/06/24 06:18:17;;;;;;;7.93;5.90;;;21.50;99.90;;;;;;5076289;28;20513;-50
2022/06/24 06:20:43;;;;;;;6.13;5.03;;;21.50;99.90;;;;;;5076471;28;20128;-50
2022/06/24 06:23:08;;;;;;;5.75;5.18;;;21.40;99.90;;;;;;5076180;28;20066;-48
2022/06/24 06:25:34;;;;;;;7.05;5.07;;;21.40;99.90;;;;;;5076028;28;20045;-49
2022/06/24 06:28:04;;;;;;;6.05;5.45;;;21.40;99.90;;;;;;5074878;28;20083;-51
2022/06/24 06:30:30;;;;;;;7.05;5.60;;;21.40;99.90;;;;;;5075856;28;20047;-52
2022/06/24 06:32:56;;;;;;;6.15;5.53;;;21.40;99.90;;;;;;5075957;28;20036;-51
2022/06/24 06:35:21;;;;;;;6.82;6.13;;;21.40;99.90;;;;;;5075976;28;20094;-53
2022/06/24 06:37:47;;;;;;;8.20;6.00;;;21.30;99.90;;;;;;5076184;28;20046;-51
2022/06/24 06:40:12;;;;;;;6.50;5.85;;;21.30;99.90;;;;;;5074638;28;20087;-49
2022/06/24 06:42:38;;;;;;;9.40;5.63;;;21.30;99.90;;;;;;5076304;28;20033;-49
2022/06/24 06:45:04;;;;;;;6.25;5.65;;;21.30;99.90;;;;;;5075502;28;20532;-53
2022/06/24 06:47:30;;;;;;;6.57;6.05;;;21.20;99.90;;;;;;5075722;28;20078;-52
2022/06/24 06:49:56;;;;;;;6.72;6.13;;;21.20;99.90;;;;;;5075699;28;20064;-53
2022/06/24 06:52:21;;;;;;;6.82;6.15;;;21.10;99.90;;;;;;5074573;28;20089;-49
2022/06/24 06:54:47;;;;;;;8.57;6.60;;;21.10;99.90;;;;;;5074428;28;20050;-51
2022/06/24 06:57:12;;;;;;;8.80;6.60;;;21.20;99.90;;;;;;5074420;28;20037;-51
2022/06/24 06:59:38;;;;;;;7.20;6.50;;;21.20;99.90;;;;;;5074712;28;20116;-48
2022/06/24 07:02:04;;;;;;;7.30;6.53;;;21.10;99.90;;;;;;5074722;28;20497;-49
2022/06/24 07:04:29;;;;;;;7.72;6.63;;;21.10;99.90;;;;;;5075364;28;20422;-52
2022/06/24 07:06:55;;;;;;;8.52;7.20;;;21.20;99.90;;;;;;5074044;28;20052;-50
2022/06/24 07:09:21;;;;;;;9.80;7.50;;;21.20;99.90;;;;;;5075386;28;20039;-51
2022/06/24 07:11:46;;;;;;;8.23;7.43;;;21.20;99.90;;;;;;5075676;28;20394;-51
2022/06/24 07:14:12;;;;;;;8.90;8.07;;;21.20;99.90;;;;;;5075018;28;20052;-51
2022/06/24 07:16:37;;;;;;;10.38;8.00;;;21.10;99.90;;;;;;5074850;28;20039;-49
2022/06/24 07:19:03;;;;;;;10.00;7.68;;;21.20;99.90;;;;;;5075142;28;20044;-49
2022/06/24 07:21:29;;;;;;;9.45;8.50;;;21.10;99.90;;;;;;5075077;28;20475;-48
2022/06/24 07:23:54;;;;;;;9.27;8.43;;;21.10;99.90;;;;;;5075033;28;20044;-48
2022/06/24 07:26:20;;;;;;;9.93;9.02;;;21.00;99.90;;;;;;5074938;28;20083;-51
2022/06/24 07:28:45;;;;;;;10.95;8.40;;;20.90;99.90;;;;;;5073648;28;20475;-50
2022/06/24 07:31:19;;;;;;;9.73;8.82;;;20.90;99.90;;;;;;5075077;28;20040;-48
2022/06/24 07:33:45;;;;;;;10.27;9.32;;;20.90;99.90;;;;;;5074800;28;20511;-47
2022/06/24 07:36:11;;;;;;;10.05;8.98;;;20.90;99.90;;;;;;5074595;28;20435;-48
2022/06/24 07:38:37;;;;;;;9.50;8.60;;;20.90;99.90;;;;;;5075153;28;20170;-48
2022/06/24 07:41:03;;;;;;;10.07;8.82;;;20.90;99.90;;;;;;5074563;28;20403;-48
2022/06/24 07:43:29;;;;;;;10.73;9.82;;;20.90;99.90;;;;;;5074753;28;20044;-48
2022/06/24 07:45:55;;;;;;;12.70;9.55;;;21.00;99.90;;;;;;5075003;28;20052;-49
2022/06/24 07:48:21;;;;;;;10.38;9.52;;;20.90;99.90;;;;;;5074337;28;20560;-52
2022/06/24 07:50:46;;;;;;;11.30;9.05;;;20.90;99.90;;;;;;5074543;28;20746;-51
2022/06/24 07:53:12;;;;;;;11.13;9.40;;;20.90;99.90;;;;;;5074494;28;20141;-51
2022/06/24 07:58:22;;;;;;;10.30;9.40;;;20.90;99.90;;;;;;5074322;28;20547;-49
2022/06/24 08:00:48;;;;;;;11.23;9.20;;;20.90;99.90;;;;;;5074331;28;20040;-52
2022/06/24 08:03:14;;;;;;;10.00;9.10;;;20.90;99.90;;;;;;5074268;28;20044;-51
2022/06/24 08:05:40;;;;;;;9.80;8.90;;;20.90;99.90;;;;;;5074232;28;20067;-48
2022/06/24 08:08:06;;;;;;;10.20;9.32;;;20.90;99.90;;;;;;5074067;28;20157;-48
2022/06/24 08:10:32;;;;;;;11.23;10.32;;;20.90;99.90;;;;;;5073933;28;20048;-51
2022/06/24 08:12:58;;;;;;;10.70;9.60;;;21.00;99.90;;;;;;5072964;28;20047;-50
2022/06/24 08:15:23;;;;;;;11.43;10.27;;;21.00;99.90;;;;;;5073896;28;20483;-53
2022/06/24 08:17:49;;;;;;;10.18;9.27;;;20.90;99.90;;;;;;5073633;28;20491;-49
2022/06/24 08:20:15;;;;;;;10.10;9.15;;;21.00;99.90;;;;;;5073804;28;20098;-49
2022/06/24 08:22:41;;;;;;;10.18;9.32;;;21.00;99.90;;;;;;5073730;28;20047;-52
2022/06/24 08:25:07;;;;;;;12.30;11.20;;;21.00;99.90;;;;;;5073564;28;20044;-50
2022/06/24 08:27:33;;;;;;;10.38;9.48;;;21.00;99.90;;;;;;5073888;28;20447;-52
2022/06/24 08:29:59;;;;;;;10.85;9.75;;;21.00;99.90;;;;;;5073755;28;20124;-52
2022/06/24 08:32:24;;;;;;;10.40;9.50;;;21.00;99.90;;;;;;5073605;28;20045;-51
2022/06/24 08:34:50;;;;;;;9.68;8.88;;;21.00;99.90;;;;;;5073391;28;20055;-53
2022/06/24 08:37:15;;;;;;;9.18;8.35;;;21.00;99.90;;;;;;5073473;28;20040;-50
2022/06/24 08:39:41;;;;;;;9.40;8.60;;;21.00;99.90;;;;;;5073352;28;20119;-49
2022/06/24 08:42:11;;;;;;;9.43;8.50;;;21.00;99.90;;;;;;5073612;28;20036;-51
2022/06/24 08:44:37;;;;;;;10.80;9.73;;;20.90;99.90;;;;;;5073671;28;20044;-51
2022/06/24 08:47:03;;;;;;;10.13;9.13;;;20.90;99.90;;;;;;5072334;28;20083;-50
2022/06/24 08:49:34;;;;;;;10.50;9.50;;;20.90;99.90;;;;;;5073427;28;20037;-51
2022/06/24 08:52:01;;;;;;;10.50;9.55;;;20.90;99.90;;;;;;5073190;28;20041;-50
2022/06/24 08:54:30;;;;;;;11.18;10.05;;;20.90;99.90;;;;;;5072838;28;20053;-51
2022/06/24 08:56:58;;;;;;;11.80;10.68;;;20.80;99.90;;;;;;5073226;28;20051;-52
2022/06/24 08:59:26;;;;;;;11.35;10.20;;;20.80;99.90;;;;;;5073258;28;20067;-50
2022/06/24 09:01:52;;;;;;;10.07;9.18;;;20.80;99.90;;;;;;5073091;28;20046;-52
2022/06/24 09:04:22;;;;;;;10.38;9.40;;;20.70;99.90;;;;;;5073153;28;20036;-52
2022/06/24 09:06:47;;;;;;;11.13;10.13;;;20.70;99.90;;;;;;5073029;28;20066;-50
2022/06/24 09:09:25;;;;;;;10.63;9.63;;;20.70;99.90;;;;;;5073195;28;20490;-51
2022/06/24 09:11:57;;;;;;;10.98;10.07;;;20.70;99.90;;;;;;5073241;28;20082;-53
2022/06/24 09:14:23;;;;;;;10.40;9.40;;;20.60;99.90;;;;;;5073019;28;20045;-53
2022/06/24 09:16:48;;;;;;;9.25;8.40;;;20.60;99.90;;;;;;5072814;28;20119;-52
2022/06/24 09:19:15;;;;;;;6.30;5.70;;;20.60;99.90;;;;;;5072900;28;20491;-53
2022/06/24 09:21:42;;;;;;;4.57;4.28;;;20.50;99.90;;;;;;5073093;28;20101;-54
2022/06/24 09:24:09;;;;;;;5.47;4.30;;;20.50;99.90;;;;;;5073145;28;20173;-52
2022/06/24 09:26:34;;;;;;;3.70;3.40;;;20.50;99.90;;;;;;5073035;28;20106;-50
2022/06/24 09:29:03;;;;;;;3.55;3.13;;;20.40;99.90;;;;;;5072825;28;20494;-49
2022/06/24 09:31:31;;;;;;;2.45;2.00;;;20.30;99.90;;;;;;5071966;28;20045;-53
2022/06/24 09:34:09;;;;;;;2.08;1.88;;;20.10;99.90;;;;;;5072913;28;20040;-50
2022/06/24 09:36:36;;;;;;;3.63;2.00;;;19.90;99.90;;;;;;5072886;28;20047;-52
2022/06/24 09:39:09;;;;;;;3.65;2.22;;;19.70;99.90;;;;;;5072936;28;20414;-51
2022/06/24 09:41:48;;;;;;;2.55;2.20;;;19.60;99.90;;;;;;5072667;28;20049;-51
2022/06/24 09:44:15;;;;;;;2.35;2.17;;;19.50;99.90;;;;;;5072510;28;20115;-51
2022/06/24 09:46:41;;;;;;;4.80;2.17;;;19.50;99.90;;;;;;5072982;28;20040;-52
2022/06/24 09:49:10;;;;;;;4.10;2.47;;;19.50;99.90;;;;;;5072844;28;20045;-50
2022/06/24 09:51:36;;;;;;;3.78;2.70;;;19.40;99.90;;;;;;5072732;28;20090;-51
2022/06/24 09:54:03;;;;;;;3.00;2.80;;;19.40;99.90;;;;;;5072356;28;20060;-51
2022/06/24 09:56:30;;;;;;;3.85;2.83;;;19.30;99.90;;;;;;5072397;28;20099;-50
2022/06/24 10:01:42;;;;;;;3.63;3.10;;;19.30;99.90;;;;;;5072734;28;20118;-52
2022/06/24 10:04:12;;;;;;;;;;;19.40;99.90;;;;;;5073045;28;20048;-49
2022/06/24 10:06:38;;;;;;;4.15;3.80;;;19.50;99.90;;;;;;5072606;28;19927;-51
2022/06/24 10:09:07;;;;;;;4.70;3.70;;;19.60;99.90;;;;;;5072514;28;20045;-49
2022/06/24 10:11:34;;;;;;;3.42;3.13;;;19.60;99.90;;;;;;5072520;28;20036;-51
2022/06/24 10:14:01;;;;;;;3.63;3.25;;;19.70;99.90;;;;;;5072538;28;20086;-50
2022/06/24 10:16:27;;;;;;;4.35;3.10;;;19.80;99.90;;;;;;5072329;28;20047;-48
2022/06/24 10:18:55;;;;;;;5.03;3.00;;;19.80;99.90;;;;;;5072429;28;20044;-49
2022/06/24 10:21:20;;;;;;;;;;;19.80;99.90;;;;;;5072736;28;20037;-54
2022/06/24 10:23:52;;;;;;;3.25;2.95;;;19.80;99.90;;;;;;5072148;28;19973;-49
2022/06/24 10:26:24;;;;;;;3.00;2.70;;;19.80;99.90;;;;;;5072357;28;20045;-49
2022/06/24 10:29:04;;;;;;;3.10;2.90;;;19.80;99.90;;;;;;5072289;28;20087;-51
2022/06/24 10:31:42;;;;;;;3.17;2.88;;;19.70;99.90;;;;;;5072214;28;20504;-50
2022/06/24 10:34:29;;;;;;;3.25;2.95;;;19.70;99.90;;;;;;5072239;28;20071;-50
2022/06/24 10:37:24;;;;;;;4.50;3.30;;;19.60;99.90;;;;;;5072228;28;20041;-51
2022/06/24 10:39:51;;;;;;;4.90;3.60;;;19.70;99.90;;;;;;5070870;28;20053;-51
2022/06/24 10:42:24;;;;;;;3.90;3.50;;;19.60;99.90;;;;;;5074342;28;20040;-54
2022/06/24 10:45:06;;;;;;;4.15;3.75;;;19.60;99.90;;;;;;5074434;28;20047;-53
2022/06/24 10:47:34;;;;;;;7.03;4.72;;;19.70;99.90;;;;;;5075850;28;20123;-50
2022/06/24 10:50:01;;;;;;;4.97;4.50;;;20.00;99.90;;;;;;5075602;28;20051;-51
2022/06/24 10:52:48;;;;;;;5.90;4.45;;;20.20;99.90;;;;;;5075446;28;20064;-53
2022/06/24 10:58:17;;;;;;;5.40;4.90;;;21.00;99.90;;;;;;5070586;28;20106;-49
2022/06/24 11:00:54;;;;;;;7.05;5.38;;;21.40;99.90;;;;;;5075481;28;20048;-50
2022/06/24 11:03:27;;;;;;;6.57;5.65;;;21.70;99.90;;;;;;5075474;28;20040;-50
2022/06/24 11:05:52;;;;;;;6.22;4.90;;;22.10;99.90;;;;;;5075388;28;20123;-52
2022/06/24 11:08:20;;;;;;;6.00;4.90;;;22.60;99.90;;;;;;5075433;28;20120;-54
2022/06/24 11:10:47;;;;;;;;;;;22.80;99.90;;;;;;5074880;28;20040;-52
2022/06/24 11:13:13;;;;;;;5.90;5.30;;;22.90;99.90;;;;;;5075232;28;19927;-52
2022/06/24 11:15:45;;;;;;;5.45;4.93;;;23.10;99.90;;;;;;5074924;28;20037;-51
2022/06/24 11:18:16;;;;;;;5.32;4.88;;;23.10;99.90;;;;;;5075281;28;20043;-51
2022/06/24 11:21:17;;;;;;;4.95;4.40;;;22.90;99.90;;;;;;5074961;28;20439;-53
2022/06/24 11:23:45;;;;;;;5.50;5.00;;;22.60;99.90;;;;;;5075147;28;20054;-51
2022/06/24 11:26:16;;;;;;;4.95;4.00;;;22.20;99.90;;;;;;5074861;28;20045;-49
2022/06/24 11:28:48;;;;;;;4.28;3.95;;;22.10;99.90;;;;;;5075077;28;20052;-49
2022/06/24 11:31:19;;;;;;;4.50;4.10;;;22.20;99.90;;;;;;5074882;28;20045;-49
2022/06/24 11:33:47;;;;;;;4.70;4.05;;;22.30;99.90;;;;;;5074880;28;20045;-50
2022/06/24 11:36:14;;;;;;;3.88;3.63;;;22.50;99.90;;;;;;5074743;28;20059;-50
2022/06/24 11:38:48;;;;;;;;;;;22.70;99.90;;;;;;5075009;28;20115;-50
2022/06/24 11:41:25;;;;;;;4.50;3.55;;;22.80;99.90;;;;;;5074824;28;20007;-51
2022/06/24 11:43:52;;;;;;;4.05;3.65;;;23.20;99.90;;;;;;5074847;28;20080;-52
2022/06/24 11:46:18;;;;;;;3.65;3.35;;;23.30;99.90;;;;;;5074972;28;20076;-50
2022/06/24 11:48:43;;;;;;;5.88;3.60;;;23.40;99.90;;;;;;5074481;28;20075;-51
2022/06/24 11:51:18;;;;;;;3.97;3.63;;;23.40;99.90;;;;;;5074426;28;20037;-49
2022/06/24 11:53:56;;;;;;;4.40;4.10;;;23.50;99.90;;;;;;5073460;28;20127;-49
2022/06/24 11:56:24;;;;;;;7.22;4.78;;;23.40;99.90;;;;;;5074544;28;20044;-50
2022/06/24 11:58:49;;;;;;;;;;;23.50;99.90;;;;;;5074861;28;20543;-49
2022/06/24 12:01:15;;;;;;;6.18;4.93;;;23.60;99.90;;;;;;5074279;28;20019;-52
2022/06/24 12:03:42;;;;;;;5.38;4.90;;;23.80;99.90;;;;;;5074194;28;20041;-52
2022/06/24 12:06:10;;;;;;;4.93;4.53;;;23.80;99.90;;;;;;5074358;28;20051;-52
2022/06/24 12:08:37;;;;;;;5.10;4.60;;;24.00;99.90;;;;;;5074180;28;20402;-52
2022/06/24 12:11:13;;;;;;;6.20;4.85;;;24.20;99.90;;;;;;5074131;28;20051;-50
2022/06/24 12:13:39;;;;;;;5.03;4.63;;;24.30;99.90;;;;;;5074138;28;20459;-52
2022/06/24 12:16:05;;;;;;;5.47;4.97;;;24.20;99.90;;;;;;5073696;28;20123;-52
2022/06/24 12:18:32;;;;;;;5.53;5.13;;;24.20;99.90;;;;;;5074000;28;20068;-49
2022/06/24 12:21:06;;;;;;;5.43;4.93;;;24.30;99.90;;;;;;5074039;28;20032;-49
2022/06/24 12:23:33;;;;;;;5.88;5.32;;;24.20;99.90;;;;;;5073973;28;20048;-50
2022/06/24 12:26:03;;;;;;;5.88;5.47;;;24.30;99.90;;;;;;5073923;28;20055;-49
2022/06/24 12:28:29;;;;;;;6.93;6.43;;;24.40;99.90;;;;;;5073823;28;20098;-49
2022/06/24 12:30:58;;;;;;;6.60;6.00;;;24.50;99.90;;;;;;5073563;28;20041;-49
2022/06/24 12:33:26;;;;;;;7.30;6.70;;;24.50;99.90;;;;;;5073561;28;20486;-52
2022/06/24 12:36:09;;;;;;;7.38;6.68;;;24.60;99.90;;;;;;5072385;28;20045;-50
2022/06/24 12:38:36;;;;;;;7.18;6.57;;;24.70;99.90;;;;;;5073699;28;20040;-50
2022/06/24 12:41:06;;;;;;;;;;;24.90;99.90;;;;;;5073805;28;20566;-50
2022/06/24 12:43:31;;;;;;;6.50;5.70;;;25.20;99.90;;;;;;5072260;28;19927;-49
2022/06/24 12:45:58;;;;;;;7.00;6.40;;;25.20;99.90;;;;;;5073495;28;20044;-52
2022/06/24 12:51:11;;;;;;;6.60;6.00;;;25.30;99.90;;;;;;5073890;28;20106;-49
2022/06/24 12:53:37;;;;;;;6.35;5.85;;;25.30;99.90;;;;;;5072988;28;20509;-53
2022/06/24 12:56:03;;;;;;;7.30;6.70;;;25.30;99.90;;;;;;5073215;28;20080;-50
2022/06/24 12:58:28;;;;;;;7.13;6.60;;;25.20;99.90;;;;;;5072130;28;20047;-49
2022/06/24 13:00:54;;;;;;;7.80;6.95;;;25.20;99.90;;;;;;5073209;28;20044;-50
2022/06/24 13:03:21;;;;;;;7.82;7.03;;;25.30;99.90;;;;;;5073182;28;20076;-49
2022/06/24 13:05:47;;;;;;;7.43;6.93;;;25.50;99.90;;;;;;5073052;28;20098;-49
2022/06/24 13:08:13;;;;;;;8.25;6.35;;;25.60;99.90;;;;;;5073115;28;20048;-49